createdAt,value
2022-10-17T00:00:14.759Z,29.27
2022-10-17T00:02:41.090Z,29.16
2022-10-17T00:05:07.444Z,29.14
2022-10-17T00:07:33.774Z,29.30
2022-10-17T00:10:00.141Z,29.47
2022-10-17T00:12:26.461Z,29.41
2022-10-17T00:14:55.008Z,29.09
2022-10-17T00:17:21.342Z,29.33
2022-10-17T00:19:47.695Z,29.48
2022-10-17T00:22:14.025Z,29.42
2022-10-17T00:24:40.369Z,29.27
2022-10-17T00:27:06.709Z,29.59
2022-10-17T00:29:33.054Z,29.47
2022-10-17T00:31:59.418Z,29.49
2022-10-17T00:34:25.738Z,29.36
2022-10-17T00:36:52.083Z,29.17
2022-10-17T00:39:18.425Z,29.27
2022-10-17T00:41:44.754Z,29.63
2022-10-17T00:44:11.107Z,29.35
2022-10-17T00:46:37.450Z,29.59
2022-10-17T00:49:03.788Z,29.60
2022-10-17T00:51:30.123Z,29.80
2022-10-17T00:53:56.464Z,29.50
2022-10-17T00:56:22.812Z,29.48
2022-10-17T00:58:49.161Z,29.86
2022-10-17T01:01:15.541Z,29.85
2022-10-17T01:03:41.838Z,29.83
2022-10-17T01:06:08.181Z,29.74
2022-10-17T01:08:34.549Z,29.81
2022-10-17T01:11:00.922Z,30.01
2022-10-17T01:13:27.258Z,29.61
2022-10-17T01:15:53.874Z,29.63
2022-10-17T01:18:20.218Z,29.76
2022-10-17T01:20:46.562Z,29.71
2022-10-17T01:23:12.937Z,29.66
2022-10-17T01:25:39.289Z,29.56
2022-10-17T01:28:05.625Z,29.61
2022-10-17T01:30:31.976Z,29.73
2022-10-17T01:32:58.322Z,30.03
2022-10-17T01:35:25.784Z,30.04
2022-10-17T01:40:17.392Z,29.62
2022-10-17T01:42:43.731Z,29.71
2022-10-17T01:45:12.473Z,29.76
2022-10-17T01:47:38.809Z,29.77
2022-10-17T01:50:05.182Z,29.74
2022-10-17T01:52:31.529Z,29.88
2022-10-17T01:54:57.868Z,30.03
2022-10-17T01:57:24.211Z,30.11
2022-10-17T01:59:50.549Z,30.05
2022-10-17T02:02:16.906Z,29.95
2022-10-17T02:04:45.694Z,30.02
2022-10-17T02:07:12.047Z,29.59
2022-10-17T02:09:38.391Z,29.46
2022-10-17T02:12:04.741Z,29.40
2022-10-17T02:14:31.076Z,29.37
2022-10-17T02:16:57.418Z,29.31
2022-10-17T02:19:23.763Z,29.19
2022-10-17T02:21:50.147Z,29.13
2022-10-17T02:24:16.493Z,29.14
2022-10-17T02:26:42.833Z,29.06
2022-10-17T02:29:09.173Z,29.02
2022-10-17T02:31:35.523Z,28.92
2022-10-17T02:34:01.881Z,28.93
2022-10-17T02:36:28.234Z,28.84
2022-10-17T02:38:54.580Z,28.90
2022-10-17T02:41:20.965Z,28.75
2022-10-17T02:43:47.273Z,28.68
2022-10-17T02:46:13.614Z,28.69
2022-10-17T02:48:39.955Z,28.61
2022-10-17T02:51:06.300Z,28.58
2022-10-17T02:53:32.641Z,28.53
2022-10-17T02:55:58.987Z,28.56
2022-10-17T02:58:25.331Z,28.53
2022-10-17T03:00:51.745Z,28.44
2022-10-17T03:03:18.012Z,28.45
2022-10-17T03:05:44.345Z,28.39
2022-10-17T03:08:10.708Z,28.37
2022-10-17T03:10:37.050Z,28.40
2022-10-17T03:13:03.402Z,28.34
2022-10-17T03:15:29.757Z,28.31
2022-10-17T03:17:56.106Z,28.31
2022-10-17T03:20:22.449Z,28.21
2022-10-17T03:22:48.801Z,28.14
2022-10-17T03:25:15.160Z,28.18
2022-10-17T03:27:41.507Z,28.15
2022-10-17T03:30:07.873Z,28.11
2022-10-17T03:32:34.255Z,28.05
2022-10-17T03:35:00.593Z,28.00
2022-10-17T03:37:27.164Z,28.02
2022-10-17T03:39:53.281Z,27.92
2022-10-17T03:42:19.632Z,27.88
2022-10-17T03:44:45.979Z,27.87
2022-10-17T03:47:14.164Z,27.80
2022-10-17T03:49:38.695Z,27.76
2022-10-17T03:52:05.040Z,27.67
2022-10-17T03:54:31.384Z,27.65
2022-10-17T03:56:58.958Z,27.63
2022-10-17T03:59:24.081Z,27.56
2022-10-17T04:01:50.430Z,27.56
2022-10-17T04:04:16.776Z,27.54
2022-10-17T04:06:43.116Z,27.43
2022-10-17T04:09:10.446Z,27.45
2022-10-17T04:11:35.829Z,27.37
2022-10-17T04:14:02.212Z,27.38
2022-10-17T04:16:28.572Z,27.49
2022-10-17T04:18:54.901Z,27.43
2022-10-17T04:21:21.249Z,29.14
2022-10-17T04:23:47.602Z,29.46
2022-10-17T04:26:13.953Z,28.16
2022-10-17T04:28:40.324Z,27.96
2022-10-17T04:31:06.660Z,27.75
2022-10-17T04:33:33.037Z,27.66
2022-10-17T04:35:59.379Z,27.58
2022-10-17T04:38:28.423Z,27.52
2022-10-17T04:40:52.068Z,27.44
2022-10-17T04:43:18.412Z,27.36
2022-10-17T04:45:44.765Z,27.32
2022-10-17T04:48:11.105Z,27.29
2022-10-17T04:50:37.460Z,27.23
2022-10-17T04:53:03.788Z,27.18
2022-10-17T04:55:30.132Z,27.12
2022-10-17T04:57:56.469Z,27.06
2022-10-17T05:00:22.825Z,27.00
2022-10-17T05:02:49.158Z,26.89
2022-10-17T05:05:15.515Z,26.87
2022-10-17T05:07:41.858Z,26.89
2022-10-17T05:10:08.207Z,26.75
2022-10-17T05:12:34.606Z,26.81
2022-10-17T05:15:00.957Z,26.76
2022-10-17T05:17:27.301Z,26.65
2022-10-17T05:19:53.648Z,26.69
2022-10-17T05:22:20.022Z,26.68
2022-10-17T05:24:46.365Z,26.67
2022-10-17T05:27:12.710Z,26.68
2022-10-17T05:29:39.059Z,26.63
2022-10-17T05:32:05.403Z,26.65
2022-10-17T05:34:31.787Z,26.65
2022-10-17T05:36:58.085Z,26.70
2022-10-17T05:39:24.439Z,26.68
2022-10-17T05:41:50.784Z,26.67
2022-10-17T05:44:17.522Z,26.67
2022-10-17T05:46:43.859Z,26.64
2022-10-17T05:49:19.449Z,26.68
2022-10-17T05:51:36.614Z,26.64
2022-10-17T05:54:02.903Z,26.69
2022-10-17T05:56:29.246Z,26.81
2022-10-17T05:59:00.663Z,26.81
2022-10-17T06:01:21.977Z,26.78
2022-10-17T06:03:48.327Z,26.83
2022-10-17T06:06:14.665Z,26.88
2022-10-17T06:08:41.009Z,26.88
2022-10-17T06:11:09.941Z,26.81
2022-10-17T06:13:33.701Z,26.79
2022-10-17T06:16:00.054Z,26.78
2022-10-17T06:18:26.434Z,26.76
2022-10-17T06:20:52.777Z,26.78
2022-10-17T06:23:19.158Z,26.73
2022-10-17T06:25:45.503Z,26.63
2022-10-17T06:28:11.880Z,26.76
2022-10-17T06:30:38.221Z,26.75
2022-10-17T06:33:04.585Z,26.83
2022-10-17T06:35:30.929Z,26.73
2022-10-17T06:37:57.281Z,26.79
2022-10-17T06:40:23.644Z,26.73
2022-10-17T06:42:49.999Z,26.67
2022-10-17T06:45:16.340Z,26.78
2022-10-17T06:47:42.702Z,26.86
2022-10-17T06:50:09.041Z,26.88
2022-10-17T06:52:35.405Z,26.89
2022-10-17T06:57:28.413Z,26.99
2022-10-17T06:59:54.481Z,26.99
2022-10-17T07:02:20.837Z,26.96
2022-10-17T07:04:47.193Z,27.04
2022-10-17T07:07:13.585Z,27.02
2022-10-17T07:09:39.879Z,27.10
2022-10-17T07:12:06.221Z,27.12
2022-10-17T07:14:32.570Z,27.14
2022-10-17T07:16:58.920Z,27.19
2022-10-17T07:19:25.267Z,27.15
2022-10-17T07:21:51.633Z,27.21
2022-10-17T07:24:17.977Z,27.31
2022-10-17T07:26:44.335Z,27.28
2022-10-17T07:29:10.676Z,27.25
2022-10-17T07:31:37.026Z,27.20
2022-10-17T07:34:03.478Z,27.19
2022-10-17T07:36:29.792Z,27.23
2022-10-17T07:38:56.145Z,27.23
2022-10-17T07:41:22.488Z,27.25
2022-10-17T07:43:48.829Z,27.31
2022-10-17T07:46:15.274Z,27.30
2022-10-17T07:48:41.619Z,27.33
2022-10-17T07:51:07.963Z,27.27
2022-10-17T07:53:34.310Z,27.25
2022-10-17T07:56:00.674Z,27.31
2022-10-17T07:58:27.009Z,27.37
2022-10-17T08:00:53.500Z,27.37
2022-10-17T08:03:19.750Z,27.39
2022-10-17T08:05:46.106Z,27.41
2022-10-17T08:08:12.450Z,27.42
2022-10-17T08:10:38.804Z,27.37
2022-10-17T08:13:05.144Z,27.39
2022-10-17T08:15:32.162Z,27.37
2022-10-17T08:17:57.888Z,27.38
2022-10-17T08:20:24.256Z,27.35
2022-10-17T08:22:50.614Z,27.39
2022-10-17T08:25:18.196Z,27.36
2022-10-17T08:27:43.323Z,27.33
2022-10-17T08:30:09.726Z,27.32
2022-10-17T08:32:36.077Z,27.30
2022-10-17T08:35:02.431Z,27.24
2022-10-17T08:37:29.150Z,27.24
2022-10-17T08:39:55.134Z,27.25
2022-10-17T08:42:21.479Z,27.21
2022-10-17T08:44:47.827Z,27.19
2022-10-17T08:47:14.201Z,27.15
2022-10-17T08:49:40.593Z,27.09
2022-10-17T08:52:06.928Z,27.16
2022-10-17T08:54:34.594Z,27.18
2022-10-17T08:56:59.634Z,27.22
2022-10-17T08:59:25.979Z,27.22
2022-10-17T09:01:52.319Z,27.24
2022-10-17T09:04:18.743Z,27.20
2022-10-17T09:06:45.044Z,27.06
2022-10-17T09:09:11.403Z,27.08
2022-10-17T09:11:37.772Z,27.05
2022-10-17T09:14:04.102Z,27.02
2022-10-17T09:16:30.440Z,27.03
2022-10-17T09:18:56.801Z,26.93
2022-10-17T09:21:23.169Z,26.90
2022-10-17T09:23:49.511Z,26.86
2022-10-17T09:26:15.862Z,26.83
2022-10-17T09:28:42.601Z,26.76
2022-10-17T09:31:08.859Z,26.71
2022-10-17T09:33:52.958Z,26.67
2022-10-17T09:36:02.754Z,26.56
2022-10-17T09:38:27.910Z,26.51
2022-10-17T09:40:57.014Z,26.47
2022-10-17T09:43:20.583Z,26.41
2022-10-17T09:45:46.928Z,26.41
2022-10-17T09:48:13.272Z,26.47
2022-10-17T09:50:39.608Z,26.43
2022-10-17T09:53:05.958Z,26.38
2022-10-17T09:55:32.304Z,26.34
2022-10-17T09:57:58.656Z,26.35
2022-10-17T10:00:25.021Z,26.24
2022-10-17T10:02:51.333Z,26.19
2022-10-17T10:05:17.675Z,26.16
2022-10-17T10:07:44.040Z,26.11
2022-10-17T10:10:10.380Z,26.02
2022-10-17T10:12:38.064Z,25.99
2022-10-17T10:15:03.064Z,25.93
2022-10-17T10:17:29.410Z,25.83
2022-10-17T10:19:55.755Z,25.73
2022-10-17T10:22:22.118Z,25.61
2022-10-17T10:24:48.452Z,25.51
2022-10-17T10:27:14.799Z,25.50
2022-10-17T10:29:41.143Z,25.51
2022-10-17T10:32:07.488Z,25.57
2022-10-17T10:34:33.845Z,25.51
2022-10-17T10:37:00.218Z,25.55
2022-10-17T10:39:26.607Z,25.68
2022-10-17T10:41:52.951Z,25.77
2022-10-17T10:44:19.288Z,25.99
2022-10-17T10:46:45.676Z,26.67
2022-10-17T10:49:12.020Z,27.08
2022-10-17T10:51:38.397Z,27.54
2022-10-17T10:54:04.736Z,27.82
2022-10-17T10:56:31.115Z,28.16
2022-10-17T10:58:57.446Z,28.26
2022-10-17T11:01:23.796Z,28.08
2022-10-17T11:03:50.252Z,28.05
2022-10-17T11:06:16.484Z,27.88
2022-10-17T11:08:42.833Z,27.76
2022-10-17T11:11:09.181Z,27.43
2022-10-17T11:13:35.651Z,26.92
2022-10-17T11:16:02.005Z,26.73
2022-10-17T11:18:28.341Z,26.47
2022-10-17T11:20:54.684Z,26.34
2022-10-17T11:23:21.029Z,26.25
2022-10-17T11:25:47.369Z,26.19
2022-10-17T11:28:13.705Z,25.88
2022-10-17T11:30:40.104Z,25.89
2022-10-17T11:33:06.395Z,25.93
2022-10-17T11:35:32.743Z,26.09
2022-10-17T11:37:59.081Z,26.21
2022-10-17T11:40:25.441Z,26.38
2022-10-17T11:42:51.790Z,26.38
2022-10-17T11:45:18.140Z,26.50
2022-10-17T11:47:44.490Z,26.45
2022-10-17T11:52:57.140Z,26.32
2022-10-17T11:55:07.012Z,26.10
2022-10-17T11:57:33.403Z,26.06
2022-10-17T11:59:59.756Z,26.05
2022-10-17T12:02:26.099Z,26.07
2022-10-17T12:04:52.468Z,26.17
2022-10-17T12:07:18.843Z,26.09
2022-10-17T12:09:45.134Z,26.05
2022-10-17T12:12:11.483Z,25.72
2022-10-17T12:14:37.849Z,25.71
2022-10-17T12:17:04.163Z,25.80
2022-10-17T12:19:30.501Z,25.86
2022-10-17T12:21:56.883Z,26.00
2022-10-17T12:24:23.263Z,25.95
2022-10-17T12:26:49.606Z,26.05
2022-10-17T12:29:15.946Z,26.18
2022-10-17T12:31:42.301Z,26.07
2022-10-17T12:34:08.657Z,26.03
2022-10-17T12:36:35.016Z,26.31
2022-10-17T12:39:01.373Z,26.08
2022-10-17T12:41:27.706Z,25.96
2022-10-17T12:43:54.052Z,25.88
2022-10-17T12:46:20.388Z,25.80
2022-10-17T12:48:46.743Z,25.73
2022-10-17T12:53:39.454Z,25.76
2022-10-17T12:56:05.817Z,25.70
2022-10-17T12:58:32.155Z,25.62
2022-10-17T13:01:23.089Z,25.57
2022-10-17T13:03:24.844Z,25.56
2022-10-17T13:05:51.185Z,25.62
2022-10-17T13:08:17.527Z,25.64
2022-10-17T13:10:43.866Z,25.74
2022-10-17T13:13:10.211Z,25.76
2022-10-17T13:15:36.554Z,25.81
2022-10-17T13:18:02.905Z,25.73
2022-10-17T13:20:31.459Z,25.64
2022-10-17T13:22:55.599Z,25.67
2022-10-17T13:25:22.231Z,25.73
2022-10-17T13:27:48.573Z,25.59
2022-10-17T13:30:14.915Z,25.32
2022-10-17T13:32:41.256Z,25.34
2022-10-17T13:35:07.642Z,25.22
2022-10-17T13:37:33.990Z,25.37
2022-10-17T13:40:11.476Z,25.38
2022-10-17T13:42:27.045Z,25.30
2022-10-17T13:44:53.051Z,25.47
2022-10-17T13:49:45.745Z,25.44
2022-10-17T13:52:12.086Z,25.38
2022-10-17T13:54:38.431Z,25.28
2022-10-17T13:57:04.772Z,25.04
2022-10-17T13:59:31.112Z,24.93
2022-10-17T14:01:57.603Z,24.83
2022-10-17T14:04:23.818Z,24.85
2022-10-17T14:06:52.295Z,24.77
2022-10-17T14:09:16.525Z,24.48
2022-10-17T14:11:42.869Z,24.49
2022-10-17T14:14:09.212Z,24.40
2022-10-17T14:16:35.556Z,24.52
2022-10-17T14:19:01.893Z,24.39
2022-10-17T14:21:40.878Z,24.34
2022-10-17T14:23:54.584Z,24.21
2022-10-17T14:26:20.953Z,24.22
2022-10-17T14:28:47.299Z,24.04
2022-10-17T14:31:13.705Z,24.02
2022-10-17T14:33:42.617Z,24.11
2022-10-17T14:36:06.389Z,24.26
2022-10-17T14:38:32.729Z,24.44
2022-10-17T14:41:15.400Z,24.41
2022-10-17T14:43:25.455Z,24.62
2022-10-17T14:45:51.784Z,24.54
2022-10-17T14:48:18.135Z,24.55
2022-10-17T14:53:10.817Z,24.41
2022-10-17T14:55:37.163Z,24.27
2022-10-17T14:58:03.509Z,24.19
2022-10-17T15:00:29.868Z,24.28
2022-10-17T15:02:56.275Z,24.13
2022-10-17T15:05:22.535Z,23.96
2022-10-17T15:07:48.899Z,24.06
2022-10-17T15:10:15.282Z,24.05
2022-10-17T15:12:51.067Z,24.09
2022-10-17T15:15:07.992Z,23.97
2022-10-17T15:17:35.468Z,24.03
2022-10-17T15:20:00.711Z,23.85
2022-10-17T15:22:27.186Z,23.86
2022-10-17T15:24:53.747Z,23.87
2022-10-17T15:27:20.094Z,23.87
2022-10-17T15:29:46.427Z,23.86
2022-10-17T15:32:12.773Z,23.74
2022-10-17T15:34:39.108Z,23.69
2022-10-17T15:37:05.459Z,23.69
2022-10-17T15:39:31.793Z,23.67
2022-10-17T15:41:58.129Z,23.62
2022-10-17T15:44:24.471Z,23.60
2022-10-17T15:46:50.826Z,23.58
2022-10-17T15:49:17.188Z,23.56
2022-10-17T15:51:43.521Z,23.51
2022-10-17T15:54:09.947Z,23.53
2022-10-17T15:56:36.214Z,23.52
2022-10-17T15:59:02.533Z,23.61
2022-10-17T16:01:28.904Z,23.64
2022-10-17T16:03:55.262Z,23.70
2022-10-17T16:06:21.598Z,23.68
2022-10-17T16:08:47.937Z,23.69
2022-10-17T16:11:14.272Z,23.65
2022-10-17T16:13:40.627Z,23.73
2022-10-17T16:16:06.975Z,23.67
2022-10-17T16:18:33.303Z,23.60
2022-10-17T16:20:59.648Z,23.60
2022-10-17T16:23:25.982Z,23.54
2022-10-17T16:25:52.325Z,23.54
2022-10-17T16:28:18.697Z,23.55
2022-10-17T16:30:45.096Z,23.54
2022-10-17T16:33:11.370Z,23.46
2022-10-17T16:35:37.905Z,23.50
2022-10-17T16:38:04.063Z,23.45
2022-10-17T16:40:30.396Z,23.52
2022-10-17T16:42:56.733Z,23.56
2022-10-17T16:45:23.077Z,23.49
2022-10-17T16:47:49.416Z,23.51
2022-10-17T16:50:15.752Z,23.45
2022-10-17T16:52:42.104Z,23.48
2022-10-17T16:55:08.447Z,23.49
2022-10-17T16:57:35.803Z,23.42
2022-10-17T17:00:01.121Z,23.45
2022-10-17T17:02:27.496Z,23.30
2022-10-17T17:04:53.833Z,23.35
2022-10-17T17:07:20.164Z,23.56
2022-10-17T17:09:46.502Z,23.64
2022-10-17T17:12:12.838Z,23.65
2022-10-17T17:14:39.183Z,23.71
2022-10-17T17:17:05.524Z,23.69
2022-10-17T17:19:31.867Z,23.85
2022-10-17T17:21:58.243Z,23.74
2022-10-17T17:24:24.581Z,23.76
2022-10-17T17:26:50.946Z,23.71
2022-10-17T17:29:17.290Z,23.68
2022-10-17T17:31:43.626Z,23.55
2022-10-17T17:34:12.011Z,23.61
2022-10-17T17:36:36.338Z,23.55
2022-10-17T17:39:02.689Z,23.54
2022-10-17T17:41:29.015Z,23.54
2022-10-17T17:43:55.360Z,23.58
2022-10-17T17:46:21.701Z,23.67
2022-10-17T17:48:48.048Z,23.66
2022-10-17T17:51:14.385Z,23.56
2022-10-17T17:53:40.726Z,23.55
2022-10-17T17:56:07.164Z,23.60
2022-10-17T17:58:33.402Z,23.54
2022-10-17T18:00:59.804Z,23.61
2022-10-17T18:03:26.083Z,23.63
2022-10-17T18:05:52.420Z,23.54
2022-10-17T18:08:18.760Z,23.54
2022-10-17T18:10:45.092Z,23.54
2022-10-17T18:13:11.435Z,23.59
2022-10-17T18:15:37.764Z,23.64
2022-10-17T18:18:04.103Z,23.71
2022-10-17T18:20:30.439Z,23.75
2022-10-17T18:23:00.492Z,23.77
2022-10-17T18:25:23.109Z,23.80
2022-10-17T18:27:49.455Z,23.80
2022-10-17T18:30:15.815Z,23.90
2022-10-17T18:32:42.130Z,23.91
2022-10-17T18:35:08.494Z,23.97
2022-10-17T18:37:34.883Z,23.97
2022-10-17T18:40:01.163Z,24.03
2022-10-17T18:42:27.718Z,24.07
2022-10-17T18:44:53.855Z,24.12
2022-10-17T18:50:05.451Z,24.16
2022-10-17T18:52:31.798Z,24.16
2022-10-17T18:54:58.139Z,24.24
2022-10-17T18:57:26.175Z,24.26
2022-10-17T18:59:50.849Z,24.26
2022-10-17T19:02:17.185Z,24.29
2022-10-17T19:04:43.618Z,24.32
2022-10-17T19:07:09.896Z,24.32
2022-10-17T19:09:36.231Z,24.41
2022-10-17T19:12:02.574Z,24.44
2022-10-17T19:14:28.914Z,24.41
2022-10-17T19:16:55.258Z,24.41
2022-10-17T19:19:21.601Z,24.48
2022-10-17T19:21:47.973Z,24.57
2022-10-17T19:24:14.315Z,24.53
2022-10-17T19:26:40.656Z,24.60
2022-10-17T19:29:07.029Z,24.67
2022-10-17T19:31:33.344Z,24.60
2022-10-17T19:33:59.675Z,24.60
2022-10-17T19:36:28.926Z,24.83
2022-10-17T19:38:52.369Z,24.90
2022-10-17T19:41:18.722Z,24.76
2022-10-17T19:43:45.066Z,24.85
2022-10-17T19:46:11.407Z,24.92
2022-10-17T19:48:37.741Z,25.01
2022-10-17T19:51:04.093Z,24.96
2022-10-17T19:53:30.437Z,24.96
2022-10-17T19:55:56.772Z,25.02
2022-10-17T19:58:23.120Z,25.02
2022-10-17T20:00:49.460Z,24.93
2022-10-17T20:03:15.794Z,24.99
2022-10-17T20:05:42.135Z,25.08
2022-10-17T20:08:08.501Z,25.32
2022-10-17T20:10:34.855Z,25.05
2022-10-17T20:13:01.189Z,25.31
2022-10-17T20:15:27.531Z,25.12
2022-10-17T20:17:53.871Z,25.14
2022-10-17T20:20:20.397Z,25.14
2022-10-17T20:22:46.728Z,25.35
2022-10-17T20:25:13.126Z,25.36
2022-10-17T20:27:39.454Z,25.11
2022-10-17T20:30:05.798Z,25.38
2022-10-17T20:32:32.474Z,25.25
2022-10-17T20:34:58.477Z,25.22
2022-10-17T20:37:24.816Z,25.24
2022-10-17T20:40:00.016Z,25.29
2022-10-17T20:42:17.488Z,25.41
2022-10-17T20:47:16.302Z,25.26
2022-10-17T20:49:36.501Z,25.31
2022-10-17T20:52:02.842Z,25.48
2022-10-17T20:54:29.177Z,25.41
2022-10-17T20:56:55.509Z,25.27
2022-10-17T20:59:21.846Z,25.28
2022-10-17T21:01:48.210Z,25.28
2022-10-17T21:04:44.882Z,25.31
2022-10-17T21:06:40.923Z,25.28
2022-10-17T21:09:07.289Z,25.35
2022-10-17T21:11:33.671Z,25.33
2022-10-17T21:13:59.998Z,25.35
2022-10-17T21:16:26.329Z,25.32
2022-10-17T21:18:52.674Z,25.51
2022-10-17T21:21:19.003Z,25.40
2022-10-17T21:23:45.344Z,25.37
2022-10-17T21:26:11.682Z,25.41
2022-10-17T21:28:38.068Z,25.41
2022-10-17T21:31:04.369Z,25.44
2022-10-17T21:33:30.705Z,25.48
2022-10-17T21:35:57.043Z,25.44
2022-10-17T21:38:23.385Z,25.47
2022-10-17T21:40:51.466Z,25.51
2022-10-17T21:43:16.083Z,25.63
2022-10-17T21:45:42.422Z,25.64
2022-10-17T21:48:13.079Z,25.78
2022-10-17T21:50:35.102Z,25.67
2022-10-17T21:53:01.447Z,25.77
2022-10-17T21:55:27.813Z,25.69
2022-10-17T21:57:54.159Z,25.67
2022-10-17T22:00:20.504Z,25.69
2022-10-17T22:02:46.841Z,25.69
2022-10-17T22:05:13.175Z,25.71
2022-10-17T22:07:39.556Z,25.73
2022-10-17T22:10:05.880Z,25.76
2022-10-17T22:12:32.564Z,25.79
2022-10-17T22:14:58.631Z,25.82
2022-10-17T22:17:24.978Z,25.86
2022-10-17T22:19:51.419Z,25.85
2022-10-17T22:22:17.755Z,25.87
2022-10-17T22:24:44.095Z,25.92
2022-10-17T22:27:10.440Z,26.16
2022-10-17T22:29:36.774Z,25.98
2022-10-17T22:32:03.106Z,25.99
2022-10-17T22:34:29.445Z,26.05
2022-10-17T22:36:55.781Z,26.03
2022-10-17T22:39:22.195Z,26.05
2022-10-17T22:41:48.530Z,26.10
2022-10-17T22:44:14.892Z,26.11
2022-10-17T22:46:41.229Z,26.11
2022-10-17T22:49:07.572Z,26.17
2022-10-17T22:51:33.918Z,26.18
2022-10-17T22:54:00.259Z,26.17
2022-10-17T22:56:26.602Z,26.16
2022-10-17T22:58:52.940Z,26.19
2022-10-17T23:01:19.291Z,26.23
2022-10-17T23:03:45.604Z,26.25
2022-10-17T23:06:11.959Z,26.33
2022-10-17T23:08:38.320Z,26.33
2022-10-17T23:11:04.666Z,26.34
2022-10-17T23:13:31.091Z,26.34
2022-10-17T23:15:57.470Z,26.35
2022-10-17T23:18:23.857Z,26.43
2022-10-17T23:20:50.186Z,26.44
2022-10-17T23:23:16.496Z,26.47
2022-10-17T23:25:42.838Z,26.47
2022-10-17T23:28:09.179Z,26.51
2022-10-17T23:30:35.518Z,26.55
2022-10-17T23:33:01.859Z,26.58
2022-10-17T23:35:28.194Z,26.61
2022-10-17T23:37:54.529Z,26.59
2022-10-17T23:40:20.880Z,26.67
2022-10-17T23:42:47.211Z,26.75
2022-10-17T23:45:13.576Z,26.78
2022-10-17T23:47:39.911Z,26.81
2022-10-17T23:50:06.253Z,26.74
2022-10-17T23:52:32.599Z,26.81
2022-10-17T23:54:58.940Z,26.80
2022-10-17T23:57:25.279Z,26.76
2022-10-17T23:59:51.614Z,26.91
